createdAt,value
2019-02-02T00:01:27.866Z,26.37
2019-02-02T00:03:59.024Z,27.50
2019-02-02T00:06:28.600Z,26.60
2019-02-02T00:08:58.994Z,27.57
2019-02-02T00:11:28.737Z,30.47
2019-02-02T00:13:58.295Z,29.33
2019-02-02T00:16:29.399Z,26.53
2019-02-02T00:18:59.034Z,26.90
2019-02-02T00:21:30.122Z,23.70
2019-02-02T00:23:59.734Z,25.87
2019-02-02T00:26:29.289Z,27.10
2019-02-02T00:29:01.487Z,24.13
2019-02-02T00:31:32.650Z,25.40
2019-02-02T00:34:02.208Z,26.23
2019-02-02T00:36:31.774Z,24.00
2019-02-02T00:39:01.416Z,24.10
2019-02-02T00:41:32.535Z,22.80
2019-02-02T00:44:04.073Z,22.87
2019-02-02T00:46:33.931Z,24.20
2019-02-02T00:49:06.732Z,24.87
2019-02-02T00:51:36.359Z,23.60
2019-02-02T00:54:07.645Z,24.80
2019-02-02T00:56:37.209Z,24.63
2019-02-02T00:59:07.021Z,23.67
2019-02-02T01:01:36.690Z,25.20
2019-02-02T01:04:06.787Z,24.37
2019-02-02T01:06:38.020Z,24.23
2019-02-02T01:09:12.183Z,21.87
2019-02-02T01:11:41.806Z,22.50
2019-02-02T01:14:11.691Z,24.70
2019-02-02T01:16:41.509Z,23.63
2019-02-02T01:19:11.108Z,23.20
2019-02-02T01:21:40.830Z,24.27
2019-02-02T01:24:10.632Z,26.53
2019-02-02T01:26:40.239Z,24.67
2019-02-02T01:29:09.790Z,29.47
2019-02-02T01:31:39.407Z,25.07
2019-02-02T01:34:09.042Z,25.17
2019-02-02T01:36:41.278Z,26.50
2019-02-02T01:39:30.626Z,25.43
2019-02-02T01:42:00.345Z,24.67
2019-02-02T01:44:29.923Z,22.67
2019-02-02T01:46:59.521Z,23.17
2019-02-02T01:49:29.106Z,24.77
2019-02-02T01:51:58.735Z,24.77
2019-02-02T01:54:28.325Z,27.40
2019-02-02T01:56:57.931Z,23.73
2019-02-02T01:59:27.519Z,24.90
2019-02-02T02:01:57.147Z,26.73
2019-02-02T02:04:26.710Z,25.23
2019-02-02T02:06:57.835Z,24.17
2019-02-02T02:09:27.420Z,22.33
2019-02-02T02:11:58.096Z,24.70
2019-02-02T02:14:27.663Z,23.30
2019-02-02T02:17:00.933Z,26.47
2019-02-02T02:19:33.305Z,21.50
2019-02-02T02:22:02.963Z,24.40
2019-02-02T02:24:32.570Z,22.43
2019-02-02T02:27:02.131Z,23.73
2019-02-02T02:29:31.734Z,24.70
2019-02-02T02:32:01.371Z,23.63
2019-02-02T02:34:30.940Z,23.50
2019-02-02T02:37:01.994Z,23.47
2019-02-02T02:39:31.603Z,23.90
2019-02-02T02:42:01.243Z,25.07
2019-02-02T02:44:31.017Z,26.90
2019-02-02T02:47:02.386Z,26.37
2019-02-02T02:49:31.951Z,24.73
2019-02-02T02:52:01.551Z,22.90
2019-02-02T02:54:31.187Z,24.20
2019-02-02T02:57:00.652Z,26.07
2019-02-02T02:59:30.305Z,24.07
2019-02-02T03:01:59.928Z,24.33
2019-02-02T03:04:29.543Z,24.50
2019-02-02T03:06:59.151Z,22.77
2019-02-02T03:09:29.420Z,25.30
2019-02-02T03:11:59.200Z,25.07
2019-02-02T03:14:28.794Z,25.23
2019-02-02T03:16:58.501Z,25.80
2019-02-02T03:19:28.127Z,26.47
2019-02-02T03:21:57.767Z,26.40
2019-02-02T03:24:30.427Z,25.40
2019-02-02T03:26:59.997Z,26.77
2019-02-02T03:29:29.608Z,26.63
2019-02-02T03:31:59.242Z,25.77
2019-02-02T03:34:28.834Z,23.73
2019-02-02T03:36:58.396Z,24.33
2019-02-02T03:39:28.347Z,24.73
2019-02-02T03:41:57.902Z,21.80
2019-02-02T03:44:27.876Z,22.07
2019-02-02T03:46:57.499Z,23.20
2019-02-02T03:49:30.047Z,21.60
2019-02-02T03:52:02.310Z,22.97
2019-02-02T03:54:32.490Z,20.73
2019-02-02T03:57:02.062Z,24.33
2019-02-02T03:59:37.755Z,23.03
2019-02-02T04:02:07.386Z,23.60
2019-02-02T04:04:36.953Z,21.13
2019-02-02T04:07:07.316Z,26.33
2019-02-02T04:09:36.886Z,24.23
2019-02-02T04:12:06.827Z,22.43
2019-02-02T04:14:36.690Z,23.83
2019-02-02T04:17:08.634Z,23.27
2019-02-02T04:19:38.215Z,21.90
2019-02-02T04:22:09.096Z,27.47
2019-02-02T04:24:44.733Z,23.30
2019-02-02T04:27:14.463Z,23.13
2019-02-02T04:29:45.603Z,23.63
2019-02-02T04:32:15.354Z,23.10
2019-02-02T04:34:46.489Z,21.63
2019-02-02T04:37:17.557Z,23.87
2019-02-02T04:39:47.130Z,24.20
2019-02-02T04:42:16.614Z,22.57
2019-02-02T04:44:46.173Z,27.03
2019-02-02T04:47:17.358Z,24.73
2019-02-02T04:49:52.854Z,24.90
2019-02-02T04:52:26.342Z,23.00
2019-02-02T04:54:55.803Z,25.67
2019-02-02T04:57:25.391Z,26.10
2019-02-02T04:59:59.232Z,25.93
2019-02-02T05:02:30.514Z,24.87
2019-02-02T05:05:00.212Z,22.80
2019-02-02T05:07:29.741Z,25.07
2019-02-02T05:10:00.888Z,23.97
2019-02-02T05:12:30.605Z,21.10
2019-02-02T05:15:00.340Z,21.07
2019-02-02T05:17:37.246Z,23.43
2019-02-02T05:20:11.743Z,25.70
2019-02-02T05:22:41.363Z,24.03
2019-02-02T05:25:12.085Z,23.93
2019-02-02T05:27:44.665Z,23.70
2019-02-02T05:30:18.715Z,22.63
2019-02-02T05:32:49.800Z,24.47
2019-02-02T05:35:19.563Z,23.30
2019-02-02T05:37:52.117Z,31.00
2019-02-02T05:40:23.537Z,26.20
2019-02-02T05:42:53.494Z,27.57
2019-02-02T05:45:24.858Z,25.50
2019-02-02T05:47:56.047Z,24.40
2019-02-02T05:50:25.882Z,23.57
2019-02-02T05:52:55.481Z,29.37
2019-02-02T05:55:25.226Z,23.07
2019-02-02T05:57:54.826Z,21.97
2019-02-02T06:00:30.222Z,23.97
2019-02-02T06:02:59.835Z,23.57
2019-02-02T06:05:29.394Z,20.33
2019-02-02T06:07:59.442Z,16.60
2019-02-02T06:10:29.106Z,19.87
2019-02-02T06:12:58.844Z,21.47
2019-02-02T06:15:29.155Z,21.37
2019-02-02T06:17:58.903Z,19.73
2019-02-02T06:20:28.425Z,21.23
2019-02-02T06:23:00.563Z,19.17
2019-02-02T06:25:30.166Z,22.93
2019-02-02T06:27:59.756Z,22.80
2019-02-02T06:30:29.414Z,22.90
2019-02-02T06:32:58.933Z,24.27
2019-02-02T06:35:28.515Z,22.80
2019-02-02T06:37:58.094Z,22.30
2019-02-02T06:40:29.391Z,22.27
2019-02-02T06:42:58.998Z,23.20
2019-02-02T06:45:32.496Z,20.30
2019-02-02T06:48:02.647Z,20.50
2019-02-02T06:50:32.287Z,21.87
2019-02-02T06:53:05.440Z,22.80
2019-02-02T06:55:36.507Z,20.13
2019-02-02T06:58:08.232Z,19.70
2019-02-02T07:00:37.928Z,18.60
2019-02-02T07:03:07.510Z,19.53
2019-02-02T07:05:37.182Z,21.17
2019-02-02T07:08:06.846Z,30.47
2019-02-02T07:10:36.438Z,25.40
2019-02-02T07:13:07.254Z,24.30
2019-02-02T07:15:36.898Z,26.23
2019-02-02T07:18:06.626Z,30.20
2019-02-02T07:20:36.270Z,27.43
2019-02-02T07:23:05.940Z,27.70
2019-02-02T07:25:35.512Z,23.67
2019-02-02T07:28:05.251Z,27.80
2019-02-02T07:30:35.120Z,24.40
2019-02-02T07:33:04.857Z,26.87
2019-02-02T07:35:34.458Z,28.13
2019-02-02T07:38:04.247Z,26.90
2019-02-02T07:40:33.902Z,26.50
2019-02-02T07:43:03.563Z,25.13
2019-02-02T07:45:33.581Z,22.30
2019-02-02T07:48:03.186Z,23.13
2019-02-02T07:50:32.749Z,23.07
2019-02-02T07:53:02.356Z,25.17
2019-02-02T07:55:31.913Z,25.40
2019-02-02T07:58:01.477Z,25.43
2019-02-02T08:00:40.897Z,27.00
2019-02-02T08:03:08.024Z,26.97
2019-02-02T08:05:37.549Z,26.50
2019-02-02T08:08:07.463Z,25.37
2019-02-02T08:10:37.267Z,30.03
2019-02-02T08:13:08.663Z,28.10
2019-02-02T08:15:39.789Z,28.57
2019-02-02T08:18:12.335Z,27.70
2019-02-02T08:20:41.940Z,24.60
2019-02-02T08:23:11.548Z,25.63
2019-02-02T08:25:41.266Z,28.27
2019-02-02T08:28:10.917Z,26.83
2019-02-02T08:30:51.636Z,26.97
2019-02-02T08:33:12.024Z,29.07
2019-02-02T08:35:41.628Z,27.17
2019-02-02T08:38:11.248Z,27.53
2019-02-02T08:40:40.840Z,25.87
2019-02-02T08:43:10.397Z,29.67
2019-02-02T08:45:41.812Z,29.70
2019-02-02T08:48:11.390Z,28.20
2019-02-02T08:50:40.987Z,27.33
2019-02-02T08:53:10.978Z,27.63
2019-02-02T08:55:40.562Z,27.70
2019-02-02T08:58:18.721Z,36.67
2019-02-02T09:00:48.430Z,25.23
2019-02-02T09:03:19.518Z,24.07
2019-02-02T09:05:51.027Z,23.50
2019-02-02T09:08:20.458Z,25.10
2019-02-02T09:10:50.138Z,22.77
2019-02-02T09:13:19.855Z,23.70
2019-02-02T09:15:49.300Z,21.97
2019-02-02T09:18:18.794Z,19.93
2019-02-02T09:20:48.378Z,20.00
2019-02-02T09:23:23.651Z,19.07
2019-02-02T09:25:54.460Z,18.87
2019-02-02T09:28:23.980Z,16.57
2019-02-02T09:30:56.662Z,18.70
2019-02-02T09:33:26.266Z,17.77
2019-02-02T09:35:55.874Z,15.70
2019-02-02T09:38:27.003Z,14.50
2019-02-02T09:40:56.604Z,14.53
2019-02-02T09:43:26.182Z,14.07
2019-02-02T09:45:55.850Z,12.40
2019-02-02T09:48:25.437Z,10.93
2019-02-02T09:50:55.202Z,10.60
2019-02-02T09:53:24.768Z,10.35
2019-02-02T09:55:55.682Z,11.95
2019-02-02T09:58:25.309Z,10.43
2019-02-02T10:00:54.731Z,11.03
2019-02-02T10:03:24.694Z,11.12
2019-02-02T10:05:55.858Z,12.60
2019-02-02T10:08:28.157Z,13.30
2019-02-02T10:11:16.066Z,13.90
2019-02-02T10:13:45.684Z,13.50
2019-02-02T10:16:15.413Z,14.23
2019-02-02T10:18:45.059Z,12.20
2019-02-02T10:21:14.699Z,13.07
2019-02-02T10:23:44.286Z,14.10
2019-02-02T10:26:14.236Z,12.87
2019-02-02T10:28:43.829Z,16.10
2019-02-02T10:31:14.051Z,14.07
2019-02-02T10:33:44.293Z,13.00
2019-02-02T10:36:14.058Z,14.00
2019-02-02T10:38:43.645Z,12.90
2019-02-02T10:41:13.274Z,14.70
2019-02-02T10:43:42.903Z,14.60
2019-02-02T10:46:12.543Z,13.83
2019-02-02T10:48:42.156Z,13.93
2019-02-02T10:51:11.744Z,15.80
2019-02-02T10:53:41.288Z,14.63
2019-02-02T10:56:10.873Z,14.97
2019-02-02T10:58:40.447Z,15.10
2019-02-02T11:01:10.611Z,16.23
2019-02-02T11:03:40.253Z,13.60
2019-02-02T11:06:11.355Z,12.80
2019-02-02T11:08:40.950Z,11.60
2019-02-02T11:11:10.618Z,11.20
2019-02-02T11:13:48.803Z,11.47
2019-02-02T11:16:18.569Z,12.63
2019-02-02T11:18:48.226Z,12.53
2019-02-02T11:21:20.614Z,10.90
2019-02-02T11:23:50.325Z,12.50
2019-02-02T11:26:20.028Z,10.93
2019-02-02T11:28:49.705Z,12.43
2019-02-02T11:31:21.846Z,12.40
2019-02-02T11:33:51.404Z,12.13
2019-02-02T11:36:21.031Z,13.23
2019-02-02T11:38:50.939Z,11.83
2019-02-02T11:41:20.570Z,10.97
2019-02-02T11:43:50.049Z,11.70
2019-02-02T11:46:19.634Z,12.30
2019-02-02T11:48:49.247Z,13.63
2019-02-02T11:51:21.204Z,13.93
2019-02-02T11:53:50.824Z,13.07
2019-02-02T11:56:20.372Z,13.33
2019-02-02T11:58:49.972Z,10.57
2019-02-02T12:01:19.752Z,12.57
2019-02-02T12:03:49.325Z,11.83
2019-02-02T12:06:18.896Z,10.70
2019-02-02T12:08:49.990Z,10.40
2019-02-02T12:11:19.649Z,11.70
2019-02-02T12:13:51.782Z,10.97
2019-02-02T12:16:21.397Z,11.20
2019-02-02T12:18:50.966Z,11.00
2019-02-02T12:21:20.544Z,11.90
2019-02-02T12:23:52.953Z,10.23
2019-02-02T12:26:24.098Z,10.87
2019-02-02T12:28:53.665Z,11.87
2019-02-02T12:31:25.884Z,11.83
2019-02-02T12:33:56.422Z,10.80
2019-02-02T12:36:26.061Z,12.07
2019-02-02T12:38:55.667Z,10.93
2019-02-02T12:41:25.252Z,13.80
2019-02-02T12:43:54.861Z,11.90
2019-02-02T12:46:24.535Z,10.60
2019-02-02T12:48:54.097Z,11.53
2019-02-02T12:51:23.780Z,11.80
2019-02-02T12:53:55.700Z,12.83
2019-02-02T12:56:24.725Z,13.20
2019-02-02T12:58:54.313Z,12.90
2019-02-02T13:01:23.982Z,12.53
2019-02-02T13:04:01.774Z,11.33
2019-02-02T13:06:27.991Z,11.50
2019-02-02T13:08:57.625Z,12.30
2019-02-02T13:11:27.343Z,11.93
2019-02-02T13:13:57.071Z,12.03
2019-02-02T13:16:26.644Z,10.57
2019-02-02T13:18:56.230Z,12.83
2019-02-02T13:21:25.861Z,11.97
2019-02-02T13:23:55.431Z,11.40
2019-02-02T13:26:25.002Z,11.53
2019-02-02T13:28:55.418Z,12.93
2019-02-02T13:31:27.854Z,12.83
2019-02-02T13:33:57.438Z,11.93
2019-02-02T13:36:27.018Z,13.07
2019-02-02T13:38:56.445Z,12.30
2019-02-02T13:41:26.014Z,14.63
2019-02-02T13:43:55.678Z,13.83
2019-02-02T13:46:25.284Z,12.57
2019-02-02T13:48:54.887Z,15.63
2019-02-02T13:51:24.468Z,13.80
2019-02-02T13:53:54.309Z,12.87
2019-02-02T13:56:23.912Z,12.17
2019-02-02T13:58:53.493Z,12.67
2019-02-02T14:01:23.266Z,12.77
2019-02-02T14:03:52.849Z,12.07
2019-02-02T14:06:25.420Z,12.97
2019-02-02T14:08:55.021Z,11.60
2019-02-02T14:11:24.590Z,12.00
2019-02-02T14:13:54.253Z,13.70
2019-02-02T14:16:23.933Z,11.90
2019-02-02T14:18:53.499Z,13.63
2019-02-02T14:21:23.094Z,11.60
2019-02-02T14:23:53.067Z,12.13
2019-02-02T14:26:22.661Z,12.20
2019-02-02T14:28:54.898Z,11.37
2019-02-02T14:31:24.356Z,12.60
2019-02-02T14:33:53.930Z,12.23
2019-02-02T14:36:23.512Z,13.17
2019-02-02T14:39:12.466Z,12.87
2019-02-02T14:41:42.071Z,13.13
2019-02-02T14:44:11.711Z,12.17
2019-02-02T14:46:41.695Z,13.00
2019-02-02T14:49:11.311Z,12.27
2019-02-02T14:51:42.362Z,12.87
2019-02-02T14:54:11.932Z,12.10
2019-02-02T14:56:48.078Z,12.80
2019-02-02T14:59:12.903Z,12.67
2019-02-02T15:01:42.582Z,12.07
2019-02-02T15:04:12.270Z,13.43
2019-02-02T15:06:44.463Z,13.50
2019-02-02T15:09:14.367Z,11.03
2019-02-02T15:11:43.958Z,12.47
2019-02-02T15:14:13.543Z,11.70
2019-02-02T15:16:43.327Z,11.30
2019-02-02T15:19:24.658Z,11.27
2019-02-02T15:21:54.241Z,10.43
2019-02-02T15:24:25.398Z,11.80
2019-02-02T15:26:56.505Z,12.17
2019-02-02T15:29:30.628Z,11.77
2019-02-02T15:32:00.211Z,11.13
2019-02-02T15:34:29.799Z,10.93
2019-02-02T15:36:59.651Z,11.87
2019-02-02T15:39:48.517Z,11.20
2019-02-02T15:42:19.653Z,12.97
2019-02-02T15:44:49.247Z,10.87
2019-02-02T15:47:26.122Z,9.97
2019-02-02T15:49:55.850Z,10.20
2019-02-02T15:52:31.173Z,9.47
2019-02-02T15:55:02.299Z,9.10
2019-02-02T15:57:31.864Z,9.03
2019-02-02T16:00:01.473Z,9.00
2019-02-02T16:02:31.207Z,9.80
2019-02-02T16:05:00.807Z,9.20
2019-02-02T16:07:30.418Z,8.67
2019-02-02T16:09:59.972Z,8.33
2019-02-02T16:12:29.541Z,9.47
2019-02-02T16:14:59.150Z,9.93
2019-02-02T16:17:29.698Z,9.07
2019-02-02T16:19:59.264Z,9.73
2019-02-02T16:22:28.935Z,8.67
2019-02-02T16:24:58.525Z,8.53
2019-02-02T16:27:29.559Z,9.93
2019-02-02T16:29:59.191Z,8.57
2019-02-02T16:32:30.228Z,9.37
2019-02-02T16:34:59.804Z,8.90
2019-02-02T16:37:29.424Z,10.00
2019-02-02T16:39:59.039Z,8.30
2019-02-02T16:42:28.633Z,8.97
2019-02-02T16:44:58.228Z,9.03
2019-02-02T16:47:27.774Z,9.23
2019-02-02T16:49:57.407Z,9.47
2019-02-02T16:52:27.071Z,10.30
2019-02-02T16:54:56.623Z,8.97
2019-02-02T16:57:26.205Z,9.50
2019-02-02T16:59:55.811Z,8.93
2019-02-02T17:02:25.439Z,8.57
2019-02-02T17:04:54.998Z,11.10
2019-02-02T17:07:24.632Z,8.83
2019-02-02T17:09:54.182Z,11.20
2019-02-02T17:12:23.922Z,9.03
2019-02-02T17:14:55.766Z,10.30
2019-02-02T17:17:26.588Z,11.03
2019-02-02T17:19:56.439Z,8.73
2019-02-02T17:22:26.039Z,10.00
2019-02-02T17:24:55.645Z,9.00
2019-02-02T17:27:25.256Z,8.70
2019-02-02T17:29:54.852Z,8.20
2019-02-02T17:32:24.511Z,8.37
2019-02-02T17:34:54.119Z,8.53
2019-02-02T17:37:25.262Z,9.13
2019-02-02T17:39:57.855Z,9.43
2019-02-02T17:42:27.430Z,9.27
2019-02-02T17:44:57.050Z,9.97
2019-02-02T17:47:26.615Z,8.53
2019-02-02T17:49:56.179Z,7.40
2019-02-02T17:52:28.495Z,8.20
2019-02-02T17:54:58.104Z,9.37
2019-02-02T17:57:29.245Z,9.00
2019-02-02T17:59:58.821Z,8.53
2019-02-02T18:02:28.564Z,8.33
2019-02-02T18:04:58.123Z,9.43
2019-02-02T18:07:30.330Z,7.70
2019-02-02T18:09:59.952Z,8.93
2019-02-02T18:12:29.542Z,9.27
2019-02-02T18:15:02.629Z,8.20
2019-02-02T18:17:32.181Z,8.67
2019-02-02T18:20:01.984Z,7.80
2019-02-02T18:22:33.993Z,8.13
2019-02-02T18:25:04.543Z,8.17
2019-02-02T18:27:34.114Z,8.77
2019-02-02T18:30:05.717Z,10.80
2019-02-02T18:32:35.360Z,7.93
2019-02-02T18:35:09.156Z,9.97
2019-02-02T18:37:38.728Z,8.07
2019-02-02T18:40:12.841Z,8.97
2019-02-02T18:42:44.091Z,9.47
2019-02-02T18:45:19.460Z,8.77
2019-02-02T18:47:49.548Z,9.40
2019-02-02T18:50:19.864Z,9.87
2019-02-02T18:52:52.323Z,11.80
2019-02-02T18:55:26.264Z,15.33
2019-02-02T18:57:55.856Z,15.00
2019-02-02T19:00:27.146Z,13.00
2019-02-02T19:02:56.931Z,12.83
2019-02-02T19:05:29.303Z,13.20
2019-02-02T19:07:59.010Z,10.60
2019-02-02T19:10:33.532Z,10.77
2019-02-02T19:13:03.455Z,15.23
2019-02-02T19:15:33.164Z,11.67
2019-02-02T19:18:03.401Z,13.37
2019-02-02T19:20:33.305Z,12.27
2019-02-02T19:23:02.881Z,10.47
2019-02-02T19:25:33.993Z,12.63
2019-02-02T19:28:22.935Z,12.10
2019-02-02T19:30:55.325Z,10.57
2019-02-02T19:33:26.509Z,14.00
2019-02-02T19:36:15.413Z,12.87
2019-02-02T19:38:46.490Z,13.93
2019-02-02T19:41:16.091Z,13.77
2019-02-02T19:44:05.334Z,13.20
2019-02-02T19:46:37.984Z,17.67
2019-02-02T19:49:26.872Z,14.87
2019-02-02T19:51:59.378Z,15.43
2019-02-02T19:54:28.951Z,18.90
2019-02-02T19:56:58.548Z,17.40
2019-02-02T19:59:28.126Z,17.37
2019-02-02T20:01:57.795Z,19.27
2019-02-02T20:04:27.385Z,21.07
2019-02-02T20:06:57.194Z,21.80
2019-02-02T20:09:26.810Z,21.57
2019-02-02T20:11:56.554Z,22.67
2019-02-02T20:14:45.408Z,23.70
2019-02-02T20:17:15.399Z,23.27
2019-02-02T20:19:46.565Z,28.20
2019-02-02T20:22:16.162Z,27.37
2019-02-02T20:24:45.773Z,26.03
2019-02-02T20:27:15.361Z,28.13
2019-02-02T20:29:49.115Z,27.30
2019-02-02T20:32:18.700Z,27.90
2019-02-02T20:34:48.343Z,27.00
2019-02-02T20:37:17.951Z,28.53
2019-02-02T20:39:47.563Z,26.90
2019-02-02T20:42:17.189Z,28.93
2019-02-02T20:44:46.837Z,30.40
2019-02-02T20:47:16.628Z,29.57
2019-02-02T20:49:46.213Z,28.70
2019-02-02T20:52:17.466Z,28.00
2019-02-02T20:54:47.065Z,29.47
2019-02-02T20:57:18.144Z,28.03
2019-02-02T20:59:47.735Z,28.03
2019-02-02T21:02:19.577Z,28.00
2019-02-02T21:04:49.140Z,24.97
2019-02-02T21:07:20.434Z,27.73
2019-02-02T21:09:50.038Z,26.53
2019-02-02T21:12:19.619Z,26.80
2019-02-02T21:15:11.470Z,26.77
2019-02-02T21:17:41.593Z,25.83
2019-02-02T21:20:15.312Z,25.53
2019-02-02T21:22:45.436Z,26.90
2019-02-02T21:25:16.823Z,27.67
2019-02-02T21:27:46.550Z,20.70
2019-02-02T21:30:20.667Z,25.47
2019-02-02T21:32:50.271Z,23.50
2019-02-02T21:35:21.907Z,20.73
2019-02-02T21:37:53.870Z,20.30
2019-02-02T21:40:27.261Z,22.40
2019-02-02T21:42:59.986Z,21.87
2019-02-02T21:45:29.859Z,19.20
2019-02-02T21:47:59.590Z,20.30
2019-02-02T21:50:32.272Z,18.90
2019-02-02T21:53:01.878Z,19.87
2019-02-02T21:55:32.434Z,21.47
2019-02-02T21:58:02.013Z,22.40
2019-02-02T22:00:36.999Z,22.50
2019-02-02T22:03:09.456Z,20.97
2019-02-02T22:05:39.208Z,19.90
2019-02-02T22:08:09.392Z,21.93
2019-02-02T22:10:39.880Z,18.83
2019-02-02T22:13:09.885Z,17.33
2019-02-02T22:15:39.439Z,17.60
2019-02-02T22:18:11.719Z,21.07
2019-02-02T22:20:41.321Z,19.23
2019-02-02T22:23:13.062Z,20.87
2019-02-02T22:25:42.650Z,21.77
2019-02-02T22:28:12.483Z,21.87
2019-02-02T22:30:44.754Z,21.83
2019-02-02T22:33:15.915Z,21.87
2019-02-02T22:35:46.057Z,20.23
2019-02-02T22:38:15.620Z,18.43
2019-02-02T22:40:45.231Z,17.27
2019-02-02T22:43:14.843Z,18.90
2019-02-02T22:45:44.421Z,20.10
2019-02-02T22:48:15.902Z,18.40
2019-02-02T22:50:45.503Z,19.97
2019-02-02T22:53:17.848Z,19.87
2019-02-02T22:55:47.489Z,18.80
2019-02-02T22:58:17.056Z,19.53
2019-02-02T23:00:53.004Z,21.50
2019-02-02T23:03:27.058Z,17.10
2019-02-02T23:06:01.599Z,19.47
2019-02-02T23:08:36.222Z,20.67
2019-02-02T23:11:13.224Z,18.43
2019-02-02T23:13:47.249Z,20.10
2019-02-02T23:16:21.288Z,20.73
2019-02-02T23:18:51.304Z,21.03
2019-02-02T23:21:21.318Z,20.00
2019-02-02T23:23:51.031Z,17.90
2019-02-02T23:26:21.086Z,15.67
2019-02-02T23:28:50.656Z,16.03
2019-02-02T23:31:20.671Z,16.70
2019-02-02T23:33:51.291Z,14.60
2019-02-02T23:36:22.717Z,14.13
2019-02-02T23:38:52.881Z,14.63
2019-02-02T23:41:25.555Z,14.57
2019-02-02T23:43:57.189Z,12.87
2019-02-02T23:46:26.777Z,13.23
2019-02-02T23:48:56.340Z,14.70
2019-02-02T23:51:25.931Z,11.80
2019-02-02T23:53:56.176Z,12.00
2019-02-02T23:56:26.229Z,10.77
2019-02-02T23:58:55.864Z,11.93
